createdAt,value
2023-01-19T00:01:25.934Z,4.27
2023-01-19T00:03:53.388Z,4.32
2023-01-19T00:06:21.015Z,4.27
2023-01-19T00:08:50.241Z,4.25
2023-01-19T00:11:18.227Z,4.28
2023-01-19T00:13:53.602Z,4.34
2023-01-19T00:16:23.333Z,4.28
2023-01-19T00:18:52.106Z,4.33
2023-01-19T00:21:21.774Z,4.32
2023-01-19T00:23:51.316Z,4.32
2023-01-19T00:26:19.479Z,4.34
2023-01-19T00:28:46.805Z,4.39
2023-01-19T00:31:14.231Z,4.39
2023-01-19T00:33:41.759Z,4.39
2023-01-19T00:36:09.958Z,4.32
2023-01-19T00:38:39.029Z,4.38
2023-01-19T00:41:06.831Z,4.33
2023-01-19T00:43:34.226Z,4.30
2023-01-19T00:46:01.689Z,4.27
2023-01-19T00:48:29.636Z,4.12
2023-01-19T00:50:57.011Z,4.12
2023-01-19T00:53:24.455Z,4.00
2023-01-19T00:55:52.113Z,4.07
2023-01-19T00:58:19.495Z,4.01
2023-01-19T01:00:46.977Z,3.99
2023-01-19T01:03:14.501Z,4.08
2023-01-19T01:05:42.556Z,4.03
2023-01-19T01:08:10.032Z,3.96
2023-01-19T01:10:37.423Z,3.93
2023-01-19T01:13:20.435Z,3.95
2023-01-19T01:15:51.201Z,3.90
2023-01-19T01:18:18.511Z,3.89
2023-01-19T01:20:46.027Z,3.99
2023-01-19T01:23:14.345Z,4.10
2023-01-19T01:25:42.740Z,4.07
2023-01-19T01:28:10.322Z,4.11
2023-01-19T01:30:41.074Z,4.04
2023-01-19T01:33:08.688Z,4.02
2023-01-19T01:35:36.305Z,3.97
2023-01-19T01:38:04.146Z,3.99
2023-01-19T01:40:31.627Z,4.06
2023-01-19T01:42:59.362Z,3.97
2023-01-19T01:45:38.631Z,3.92
2023-01-19T01:48:23.994Z,3.93
2023-01-19T01:51:17.342Z,3.99
2023-01-19T01:53:47.234Z,3.97
2023-01-19T01:56:20.933Z,3.92
2023-01-19T01:58:49.759Z,3.88
2023-01-19T02:01:35.760Z,3.86
2023-01-19T02:04:03.631Z,3.90
2023-01-19T02:06:31.091Z,3.92
2023-01-19T02:09:23.232Z,4.08
2023-01-19T02:12:09.400Z,4.07
2023-01-19T02:14:37.557Z,4.13
2023-01-19T02:17:06.608Z,4.06
2023-01-19T02:19:42.362Z,3.98
2023-01-19T02:22:19.982Z,4.03
2023-01-19T02:24:47.765Z,3.98
2023-01-19T02:27:15.924Z,3.94
2023-01-19T02:29:43.615Z,3.95
2023-01-19T02:32:11.253Z,3.96
2023-01-19T02:34:38.717Z,4.02
2023-01-19T02:37:11.471Z,4.01
2023-01-19T02:39:47.514Z,3.97
2023-01-19T02:42:19.839Z,3.95
2023-01-19T02:44:50.868Z,3.94
2023-01-19T02:47:18.443Z,3.84
2023-01-19T02:49:54.867Z,3.86
2023-01-19T02:52:22.820Z,3.94
2023-01-19T02:55:07.066Z,4.01
2023-01-19T02:58:06.574Z,3.91
2023-01-19T03:00:43.285Z,3.95
2023-01-19T03:03:36.883Z,3.82
2023-01-19T03:06:37.771Z,3.71
2023-01-19T03:09:15.839Z,3.77
2023-01-19T03:11:50.214Z,3.85
2023-01-19T03:14:23.589Z,3.86
2023-01-19T03:16:56.716Z,3.83
2023-01-19T03:19:32.835Z,3.88
2023-01-19T03:22:05.484Z,3.96
2023-01-19T03:24:37.131Z,3.98
2023-01-19T03:27:20.042Z,3.99
2023-01-19T03:30:08.175Z,3.86
2023-01-19T03:32:44.923Z,3.83
2023-01-19T03:35:14.991Z,3.83
2023-01-19T03:37:46.014Z,3.86
2023-01-19T03:40:13.605Z,3.86
2023-01-19T03:42:42.309Z,3.85
2023-01-19T03:45:12.327Z,3.94
2023-01-19T03:47:40.223Z,4.04
2023-01-19T03:50:13.963Z,4.05
2023-01-19T03:52:41.656Z,4.01
2023-01-19T03:55:10.121Z,4.01
2023-01-19T03:57:37.701Z,4.02
2023-01-19T04:00:05.704Z,3.97
2023-01-19T04:02:39.575Z,4.08
2023-01-19T04:05:07.388Z,4.15
2023-01-19T04:07:34.834Z,4.06
2023-01-19T04:10:02.308Z,3.99
2023-01-19T04:12:29.928Z,4.16
2023-01-19T04:14:57.383Z,4.09
2023-01-19T04:17:25.033Z,4.03
2023-01-19T04:19:53.331Z,4.06
2023-01-19T04:22:20.949Z,3.97
2023-01-19T04:24:48.443Z,4.09
2023-01-19T04:27:16.465Z,3.91
2023-01-19T04:29:44.102Z,3.86
2023-01-19T04:32:13.622Z,3.78
2023-01-19T04:34:41.263Z,3.85
2023-01-19T04:37:08.648Z,3.81
2023-01-19T04:39:36.612Z,3.81
2023-01-19T04:42:04.394Z,3.71
2023-01-19T04:44:31.926Z,3.73
2023-01-19T04:46:59.482Z,3.76
2023-01-19T04:49:26.963Z,3.81
2023-01-19T04:51:54.814Z,3.84
2023-01-19T04:54:22.601Z,3.81
2023-01-19T04:56:50.277Z,3.93
2023-01-19T04:59:18.007Z,3.90
2023-01-19T05:01:45.691Z,3.94
2023-01-19T05:04:13.373Z,3.94
2023-01-19T05:06:40.917Z,3.93
2023-01-19T05:09:09.223Z,3.86
2023-01-19T05:11:36.740Z,3.87
2023-01-19T05:14:04.380Z,4.09
2023-01-19T05:16:31.956Z,3.92
2023-01-19T05:18:59.438Z,4.01
2023-01-19T05:21:27.070Z,3.95
2023-01-19T05:23:54.496Z,3.98
2023-01-19T05:26:22.009Z,4.33
2023-01-19T05:28:50.408Z,4.37
2023-01-19T05:31:19.615Z,4.31
2023-01-19T05:33:48.318Z,4.15
2023-01-19T05:36:16.031Z,4.12
2023-01-19T05:38:43.497Z,4.15
2023-01-19T05:41:11.324Z,4.01
2023-01-19T05:43:38.962Z,4.07
2023-01-19T05:46:06.815Z,4.09
2023-01-19T05:48:34.294Z,4.09
2023-01-19T05:51:01.923Z,4.01
2023-01-19T05:53:29.456Z,4.05
2023-01-19T05:56:05.532Z,4.03
2023-01-19T05:58:34.600Z,4.00
2023-01-19T06:01:05.569Z,4.07
2023-01-19T06:03:34.679Z,4.14
2023-01-19T06:06:03.247Z,4.14
2023-01-19T06:08:30.722Z,4.04
2023-01-19T06:10:58.146Z,4.05
2023-01-19T06:13:25.693Z,3.97
2023-01-19T06:15:58.374Z,4.01
2023-01-19T06:18:26.000Z,3.98
2023-01-19T06:20:58.644Z,3.92
2023-01-19T06:23:27.510Z,3.94
2023-01-19T06:25:54.964Z,4.02
2023-01-19T06:28:23.133Z,3.90
2023-01-19T06:30:54.672Z,3.87
2023-01-19T06:33:24.136Z,4.02
2023-01-19T06:35:52.208Z,4.07
2023-01-19T06:38:20.198Z,3.99
2023-01-19T06:40:56.090Z,4.07
2023-01-19T06:43:23.563Z,4.04
2023-01-19T06:45:51.624Z,3.97
2023-01-19T06:48:20.006Z,4.00
2023-01-19T06:50:48.437Z,3.98
2023-01-19T06:53:17.364Z,4.02
2023-01-19T06:55:45.047Z,4.04
2023-01-19T06:58:12.909Z,4.04
2023-01-19T07:00:40.881Z,4.18
2023-01-19T07:03:09.325Z,4.08
2023-01-19T07:05:37.005Z,4.12
2023-01-19T07:08:04.802Z,4.14
2023-01-19T07:11:24.855Z,4.13
2023-01-19T07:13:19.949Z,4.28
2023-01-19T07:15:47.539Z,4.19
2023-01-19T07:18:15.048Z,4.12
2023-01-19T07:20:44.405Z,4.22
2023-01-19T07:23:11.941Z,4.25
2023-01-19T07:25:39.649Z,4.21
2023-01-19T07:28:07.436Z,4.35
2023-01-19T07:30:35.178Z,4.31
2023-01-19T07:33:03.373Z,4.30
2023-01-19T07:35:31.115Z,4.28
2023-01-19T07:37:59.396Z,4.35
2023-01-19T07:40:27.393Z,4.36
2023-01-19T07:42:57.655Z,4.37
2023-01-19T07:45:27.175Z,4.34
2023-01-19T07:47:55.604Z,4.46
2023-01-19T07:50:25.616Z,4.45
2023-01-19T07:52:53.933Z,4.43
2023-01-19T07:55:23.561Z,4.61
2023-01-19T07:57:52.114Z,4.46
2023-01-19T08:00:22.311Z,4.51
2023-01-19T08:02:51.316Z,4.42
2023-01-19T08:05:19.635Z,4.31
2023-01-19T08:07:48.442Z,4.29
2023-01-19T08:10:16.816Z,4.29
2023-01-19T08:12:44.533Z,4.20
2023-01-19T08:15:12.147Z,4.30
2023-01-19T08:17:39.866Z,4.29
2023-01-19T08:20:09.362Z,4.21
2023-01-19T08:22:37.377Z,4.08
2023-01-19T08:25:05.230Z,4.06
2023-01-19T08:27:32.749Z,4.05
2023-01-19T08:30:01.459Z,3.96
2023-01-19T08:32:29.063Z,4.24
2023-01-19T08:34:56.802Z,3.84
2023-01-19T08:37:24.888Z,3.90
2023-01-19T08:39:53.951Z,3.77
2023-01-19T08:42:21.587Z,3.79
2023-01-19T08:44:57.639Z,3.56
2023-01-19T08:47:25.596Z,3.43
2023-01-19T08:49:53.021Z,3.54
2023-01-19T08:52:20.543Z,3.62
2023-01-19T08:54:47.996Z,3.51
2023-01-19T08:57:16.274Z,3.50
2023-01-19T08:59:43.823Z,3.48
2023-01-19T09:02:12.185Z,3.59
2023-01-19T09:04:39.792Z,3.62
2023-01-19T09:07:07.580Z,3.56
2023-01-19T09:09:37.920Z,3.42
2023-01-19T09:12:05.455Z,3.49
2023-01-19T09:14:32.971Z,3.37
2023-01-19T09:17:00.482Z,3.17
2023-01-19T09:19:27.992Z,3.18
2023-01-19T09:21:55.470Z,2.93
2023-01-19T09:24:22.972Z,2.76
2023-01-19T09:26:50.388Z,2.81
2023-01-19T09:29:17.971Z,2.72
2023-01-19T09:31:45.769Z,2.70
2023-01-19T09:34:13.357Z,2.63
2023-01-19T09:36:40.901Z,2.75
2023-01-19T09:39:09.343Z,2.62
2023-01-19T09:41:38.960Z,2.70
2023-01-19T09:44:08.466Z,2.85
2023-01-19T09:46:40.414Z,2.93
2023-01-19T09:49:17.288Z,3.01
2023-01-19T09:51:48.750Z,3.04
2023-01-19T09:54:35.937Z,3.08
2023-01-19T09:57:09.837Z,3.16
2023-01-19T09:59:38.935Z,2.98
2023-01-19T10:02:36.238Z,2.81
2023-01-19T10:05:13.791Z,2.77
2023-01-19T10:08:24.751Z,2.68
2023-01-19T10:10:54.376Z,2.54
2023-01-19T10:13:32.117Z,2.64
2023-01-19T10:16:21.517Z,2.66
2023-01-19T10:18:51.929Z,2.66
2023-01-19T10:21:22.530Z,2.75
2023-01-19T10:24:06.269Z,2.56
2023-01-19T10:26:38.838Z,2.42
2023-01-19T10:29:13.525Z,2.41
2023-01-19T10:31:44.928Z,2.46
2023-01-19T10:34:21.527Z,2.46
2023-01-19T10:36:59.090Z,2.41
2023-01-19T10:39:26.646Z,2.17
2023-01-19T10:41:54.237Z,2.04
2023-01-19T10:44:30.139Z,2.09
2023-01-19T10:47:00.308Z,1.96
2023-01-19T10:49:38.132Z,1.78
2023-01-19T10:52:07.854Z,1.96
2023-01-19T10:54:37.591Z,1.95
2023-01-19T10:57:09.146Z,1.82
2023-01-19T10:59:51.252Z,1.83
2023-01-19T11:02:20.687Z,1.87
2023-01-19T11:04:53.707Z,1.75
2023-01-19T11:07:35.778Z,1.64
2023-01-19T11:10:12.605Z,1.72
2023-01-19T11:13:07.812Z,1.67
2023-01-19T11:15:35.784Z,1.76
2023-01-19T11:18:05.732Z,1.71
2023-01-19T11:20:54.341Z,1.83
2023-01-19T11:23:45.489Z,1.76
2023-01-19T11:26:25.978Z,1.87
2023-01-19T11:28:56.559Z,1.69
2023-01-19T11:31:30.037Z,1.69
2023-01-19T11:34:02.942Z,1.69
2023-01-19T11:36:36.869Z,1.76
2023-01-19T11:39:24.418Z,1.79
2023-01-19T11:41:57.208Z,1.83
2023-01-19T11:44:33.807Z,1.92
2023-01-19T11:47:11.240Z,2.23
2023-01-19T11:49:58.561Z,2.21
2023-01-19T11:52:37.386Z,2.39
2023-01-19T11:55:10.906Z,2.30
2023-01-19T11:57:43.748Z,2.41
2023-01-19T12:00:31.802Z,2.71
2023-01-19T12:03:08.605Z,2.76
2023-01-19T12:05:40.487Z,2.81
2023-01-19T12:08:12.748Z,2.80
2023-01-19T12:10:44.404Z,2.84
2023-01-19T12:13:32.465Z,2.50
2023-01-19T12:16:06.042Z,2.48
2023-01-19T12:18:40.768Z,2.55
2023-01-19T12:21:08.689Z,2.68
2023-01-19T12:23:48.358Z,2.77
2023-01-19T12:26:29.741Z,2.85
2023-01-19T12:29:05.594Z,2.91
2023-01-19T12:31:33.755Z,3.01
2023-01-19T12:34:43.896Z,3.06
2023-01-19T12:37:26.132Z,3.34
2023-01-19T12:39:56.249Z,3.24
2023-01-19T12:42:24.425Z,3.35
2023-01-19T12:45:08.296Z,3.37
2023-01-19T12:47:37.042Z,3.45
2023-01-19T12:50:13.911Z,3.78
2023-01-19T12:52:51.730Z,3.95
2023-01-19T12:55:24.406Z,4.29
2023-01-19T12:58:04.066Z,4.41
2023-01-19T13:00:34.924Z,4.23
2023-01-19T13:03:25.294Z,4.20
2023-01-19T13:05:55.109Z,4.05
2023-01-19T13:08:24.940Z,3.95
2023-01-19T13:11:10.725Z,4.01
2023-01-19T13:13:41.063Z,4.02
2023-01-19T13:16:27.661Z,4.16
2023-01-19T13:19:01.348Z,4.38
2023-01-19T13:21:42.403Z,4.48
2023-01-19T13:24:17.589Z,4.52
2023-01-19T13:26:51.592Z,4.55
2023-01-19T13:29:36.395Z,4.34
2023-01-19T13:32:16.365Z,4.30
2023-01-19T13:34:48.031Z,4.07
2023-01-19T13:37:20.017Z,4.07
2023-01-19T13:39:50.232Z,4.14
2023-01-19T13:42:26.025Z,4.21
2023-01-19T13:44:55.394Z,4.34
2023-01-19T13:47:27.270Z,4.33
2023-01-19T13:49:56.738Z,4.27
2023-01-19T13:52:31.346Z,4.32
2023-01-19T13:55:03.091Z,4.45
2023-01-19T13:57:30.833Z,4.42
2023-01-19T14:00:07.864Z,4.45
2023-01-19T14:03:18.586Z,4.48
2023-01-19T14:05:46.300Z,4.53
2023-01-19T14:08:15.365Z,4.60
2023-01-19T14:11:02.487Z,4.59
2023-01-19T14:13:33.633Z,4.60
2023-01-19T14:16:15.026Z,4.68
2023-01-19T14:18:42.928Z,4.65
2023-01-19T14:21:15.588Z,4.65
2023-01-19T14:23:47.907Z,4.57
2023-01-19T14:26:37.395Z,4.57
2023-01-19T14:29:17.814Z,4.36
2023-01-19T14:31:47.923Z,4.29
2023-01-19T14:34:34.740Z,4.34
2023-01-19T14:37:04.090Z,4.43
2023-01-19T14:39:34.961Z,4.35
2023-01-19T14:42:07.177Z,4.34
2023-01-19T14:44:39.739Z,4.34
2023-01-19T14:47:23.059Z,4.61
2023-01-19T14:49:50.751Z,4.48
2023-01-19T14:52:42.297Z,4.45
2023-01-19T14:55:50.122Z,4.47
2023-01-19T14:58:19.924Z,4.62
2023-01-19T15:00:49.297Z,4.65
2023-01-19T15:03:16.852Z,4.48
2023-01-19T15:05:46.635Z,4.51
2023-01-19T15:08:28.017Z,4.40
2023-01-19T15:10:56.237Z,4.29
2023-01-19T15:13:27.152Z,4.24
2023-01-19T15:15:54.756Z,4.09
2023-01-19T15:18:27.108Z,4.07
2023-01-19T15:21:02.815Z,4.14
2023-01-19T15:23:31.403Z,4.14
2023-01-19T15:26:00.649Z,4.12
2023-01-19T15:28:28.597Z,4.06
2023-01-19T15:30:57.707Z,4.04
2023-01-19T15:33:27.744Z,4.09
2023-01-19T15:35:55.306Z,4.12
2023-01-19T15:38:23.522Z,4.30
2023-01-19T15:40:51.626Z,4.22
2023-01-19T15:43:19.305Z,4.12
2023-01-19T15:45:48.610Z,4.19
2023-01-19T15:48:16.137Z,4.12
2023-01-19T15:50:45.212Z,4.05
2023-01-19T15:53:14.752Z,4.09
2023-01-19T15:55:42.902Z,3.94
2023-01-19T15:58:13.852Z,3.95
2023-01-19T16:00:41.697Z,3.95
2023-01-19T16:03:10.875Z,3.95
2023-01-19T16:05:43.362Z,4.04
2023-01-19T16:08:11.779Z,3.98
2023-01-19T16:10:41.047Z,3.98
2023-01-19T16:13:10.382Z,3.97
2023-01-19T16:15:39.658Z,4.02
2023-01-19T16:18:07.123Z,4.00
2023-01-19T16:20:34.656Z,3.96
2023-01-19T16:23:14.440Z,3.92
2023-01-19T16:25:43.148Z,3.88
2023-01-19T16:28:10.731Z,3.98
2023-01-19T16:30:38.333Z,3.98
2023-01-19T16:33:05.908Z,3.86
2023-01-19T16:35:33.526Z,3.88
2023-01-19T16:38:00.971Z,3.83
2023-01-19T16:40:28.511Z,3.80
2023-01-19T16:42:56.096Z,3.83
2023-01-19T16:45:23.554Z,3.82
2023-01-19T16:47:52.350Z,3.82
2023-01-19T16:50:20.559Z,3.82
2023-01-19T16:52:49.588Z,3.77
2023-01-19T16:55:17.187Z,3.83
2023-01-19T16:57:44.591Z,3.73
2023-01-19T17:00:13.003Z,3.69
2023-01-19T17:02:40.899Z,3.65
2023-01-19T17:05:08.954Z,3.64
2023-01-19T17:07:36.567Z,3.55
2023-01-19T17:10:05.554Z,3.47
2023-01-19T17:12:33.001Z,3.49
2023-01-19T17:15:00.637Z,3.43
2023-01-19T17:17:28.246Z,3.55
2023-01-19T17:19:55.839Z,3.62
2023-01-19T17:22:23.441Z,3.66
2023-01-19T17:24:50.906Z,3.68
2023-01-19T17:27:18.345Z,3.74
2023-01-19T17:29:45.833Z,3.80
2023-01-19T17:32:13.409Z,3.85
2023-01-19T17:34:40.884Z,4.00
2023-01-19T17:37:08.194Z,4.09
2023-01-19T17:39:35.562Z,3.91
2023-01-19T17:42:03.296Z,3.96
2023-01-19T17:44:31.010Z,3.93
2023-01-19T17:46:59.950Z,3.81
2023-01-19T17:49:27.734Z,3.88
2023-01-19T17:51:55.867Z,3.85
2023-01-19T17:54:23.444Z,3.91
2023-01-19T17:56:51.076Z,3.91
2023-01-19T17:59:18.581Z,3.89
2023-01-19T18:01:46.561Z,3.98
2023-01-19T18:04:14.291Z,3.98
2023-01-19T18:06:41.829Z,3.98
2023-01-19T18:09:11.880Z,4.09
2023-01-19T18:11:39.340Z,4.10
2023-01-19T18:14:06.868Z,4.11
2023-01-19T18:16:35.288Z,4.14
2023-01-19T18:19:02.808Z,4.10
2023-01-19T18:21:30.733Z,4.12
2023-01-19T18:24:02.267Z,4.11
2023-01-19T18:26:30.733Z,4.15
2023-01-19T18:28:58.999Z,4.35
2023-01-19T18:31:27.379Z,4.28
2023-01-19T18:33:55.164Z,4.34
2023-01-19T18:36:22.966Z,4.33
2023-01-19T18:38:50.634Z,4.19
2023-01-19T18:41:21.825Z,4.24
2023-01-19T18:43:50.039Z,4.08
2023-01-19T18:46:17.660Z,4.08
2023-01-19T18:48:45.155Z,3.98
2023-01-19T18:51:15.743Z,3.91
2023-01-19T18:53:44.052Z,3.88
2023-01-19T18:56:13.659Z,3.89
2023-01-19T18:58:41.815Z,3.88
2023-01-19T19:01:25.312Z,3.86
2023-01-19T19:03:54.523Z,3.86
2023-01-19T19:06:23.970Z,3.88
2023-01-19T19:08:52.699Z,3.86
2023-01-19T19:11:22.355Z,3.86
2023-01-19T19:13:55.048Z,3.81
2023-01-19T19:16:22.697Z,3.75
2023-01-19T19:18:50.973Z,3.69
2023-01-19T19:21:19.721Z,3.64
2023-01-19T19:23:55.027Z,3.64
2023-01-19T19:26:24.372Z,3.55
2023-01-19T19:28:51.929Z,3.50
2023-01-19T19:31:21.358Z,3.40
2023-01-19T19:33:51.082Z,3.42
2023-01-19T19:36:20.581Z,3.27
2023-01-19T19:38:49.752Z,3.37
2023-01-19T19:41:20.979Z,3.31
2023-01-19T19:43:48.828Z,3.21
2023-01-19T19:46:20.217Z,3.25
2023-01-19T19:48:48.731Z,3.23
2023-01-19T19:51:19.675Z,3.17
2023-01-19T19:53:50.185Z,3.10
2023-01-19T19:56:21.431Z,3.08
2023-01-19T19:58:50.403Z,3.05
2023-01-19T20:01:20.473Z,2.95
2023-01-19T20:03:49.095Z,2.95
2023-01-19T20:06:22.402Z,2.87
2023-01-19T20:08:52.131Z,2.82
2023-01-19T20:11:25.918Z,2.76
2023-01-19T20:13:54.034Z,2.75
2023-01-19T20:16:23.407Z,2.75
2023-01-19T20:18:54.372Z,2.76
2023-01-19T20:21:25.520Z,2.70
2023-01-19T20:23:54.472Z,2.75
2023-01-19T20:26:27.751Z,2.72
2023-01-19T20:28:59.897Z,2.64
2023-01-19T20:31:30.461Z,2.72
2023-01-19T20:34:00.533Z,2.74
2023-01-19T20:36:29.017Z,2.74
2023-01-19T20:38:57.222Z,2.69
2023-01-19T20:41:26.802Z,2.71
2023-01-19T20:43:54.340Z,2.71
2023-01-19T20:46:21.850Z,2.75
2023-01-19T20:48:53.035Z,2.71
2023-01-19T20:51:20.874Z,2.86
2023-01-19T20:53:48.399Z,2.75
2023-01-19T20:56:17.132Z,2.65
2023-01-19T20:58:44.664Z,2.63
2023-01-19T21:01:23.272Z,2.70
2023-01-19T21:03:52.072Z,2.64
2023-01-19T21:06:20.890Z,2.65
2023-01-19T21:08:50.246Z,2.67
2023-01-19T21:11:21.091Z,2.68
2023-01-19T21:13:50.717Z,2.73
2023-01-19T21:16:18.154Z,2.68
2023-01-19T21:18:45.957Z,2.63
2023-01-19T21:21:29.050Z,2.72
2023-01-19T21:23:58.456Z,2.68
2023-01-19T21:26:26.085Z,2.81
2023-01-19T21:28:53.859Z,2.82
2023-01-19T21:31:27.097Z,2.81
2023-01-19T21:33:55.869Z,2.85
2023-01-19T21:36:24.680Z,2.87
2023-01-19T21:38:52.619Z,2.82
2023-01-19T21:41:20.211Z,2.87
2023-01-19T21:43:47.664Z,2.97
2023-01-19T21:46:21.676Z,2.88
2023-01-19T21:48:49.531Z,2.88
2023-01-19T21:51:16.925Z,2.84
2023-01-19T21:53:44.546Z,2.85
2023-01-19T21:56:12.003Z,2.80
2023-01-19T21:58:39.475Z,2.83
2023-01-19T22:01:13.886Z,2.83
2023-01-19T22:03:42.344Z,2.74
2023-01-19T22:06:12.836Z,2.77
2023-01-19T22:08:40.884Z,2.73
2023-01-19T22:11:11.901Z,2.82
2023-01-19T22:13:39.584Z,2.88
2023-01-19T22:16:10.507Z,2.75
2023-01-19T22:18:40.003Z,2.77
2023-01-19T22:21:16.291Z,2.73
2023-01-19T22:23:44.704Z,2.74
2023-01-19T22:26:12.311Z,2.76
2023-01-19T22:28:39.755Z,2.82
2023-01-19T22:31:10.333Z,2.88
2023-01-19T22:33:38.399Z,3.00
2023-01-19T22:36:19.540Z,3.00
2023-01-19T22:38:54.371Z,3.02
2023-01-19T22:41:25.666Z,3.01
2023-01-19T22:43:55.479Z,2.97
2023-01-19T22:46:25.362Z,2.99
2023-01-19T22:48:53.174Z,3.07
2023-01-19T22:51:22.395Z,3.02
2023-01-19T22:53:50.739Z,3.04
2023-01-19T22:56:29.862Z,2.92
2023-01-19T22:58:58.895Z,2.91
2023-01-19T23:01:38.212Z,2.85
2023-01-19T23:04:07.147Z,2.88
2023-01-19T23:06:36.951Z,2.82
2023-01-19T23:09:07.663Z,2.88
2023-01-19T23:11:41.304Z,2.93
2023-01-19T23:14:13.751Z,2.89
2023-01-19T23:16:41.681Z,2.89
2023-01-19T23:19:11.882Z,2.86
2023-01-19T23:21:40.060Z,2.78
2023-01-19T23:24:08.301Z,2.75
2023-01-19T23:26:39.115Z,2.78
2023-01-19T23:29:12.940Z,2.71
2023-01-19T23:31:45.378Z,2.49
2023-01-19T23:34:13.663Z,2.42
2023-01-19T23:36:42.738Z,2.49
2023-01-19T23:39:19.924Z,2.58
2023-01-19T23:41:48.212Z,2.53
2023-01-19T23:44:15.894Z,2.53
2023-01-19T23:46:44.131Z,2.59
2023-01-19T23:49:12.919Z,2.63
2023-01-19T23:51:41.170Z,2.58
2023-01-19T23:54:08.928Z,2.58
2023-01-19T23:56:38.452Z,2.36
2023-01-19T23:59:08.757Z,2.28
